Weather observations for the past three days for
Hawthorne, Hawthorne Municipal Airport
Metric (Imperial)
Date Time (pdt) Wind (kph) Vis. (km) Weather Sky Cond. Temperature (ºC) Relative Humidity Wind Chill (°C) Heat Index (°C) Pressure Precipitation (cm)
Air Dwpt 6 hour altimeter (cm) sea level (mb) 1 hr 3 hr 6 hr
Max. Min.
30 23:53 Calm 16.09 Fair CLR 22.8 17.8 74% 75.9 1011.8
30 22:53 SW 7 16.09 Fair CLR 22.2 18.3 26.7 22.2 79% 75.9 1011.8
30 21:53 W 9 16.09 Fair CLR 23.3 16.1 64% 75.9 1011.7
30 20:53 NW 9 16.09 Fair CLR 23.3 17.2 69% 75.87 1011.3
30 19:53 W 13 16.09 Fair CLR 23.9 16.1 62% 25 75.82 1010.6
30 18:53 W 19 16.09 Fair CLR 23.9 16.7 64% 25 75.79 1010.4
30 17:53 W 19 16.09 Fair CLR 25 18.9 69% 26 75.79 1010.5
30 16:53 W 17 16.09 Fair CLR 26.7 19.4 29.4 26.7 64% 28 75.79 1010.2
30 15:53 NW 11 G 30 16.09 Fair CLR 28.3 18.9 57% 30 75.79 1010.4
30 14:53 W 17 16.09 Fair CLR 28.3 18.9 57% 30 75.84 1011.1
30 13:53 W 19 16.09 Fair CLR 27.8 19.4 60% 29 75.92 1011.9
30 12:53 W 17 16.09 Fair CLR 28.3 19.4 59% 30 75.9 1011.8
30 11:53 W 19 16.09 Fair CLR 28.3 18.9 57% 30 75.95 1012.2
30 09:53 S 7 16.09 Fair CLR 26.7 17.2 56% 27 75.92 1012.0
30 08:53 Calm 16.09 Fair CLR 24.4 18.3 69% 25 75.92 1012.0
30 07:53 SE 7 16.09 Fair CLR 23.3 18.9 76% 75.95 1012.2
30 06:53 Calm 14.48 Fair CLR 22.8 18.9 79% 75.9 1011.7
30 05:53 Calm 16.09 Fair CLR 22.8 18.3 76% 75.84 1011.2
30 04:53 Calm 16.09 Fair CLR 22.8 18.3 23.9 22.8 76% 75.84 1010.9
30 03:53 Calm 16.09 Fair CLR 22.8 18.3 76% 75.82 1010.8
30 02:53 Calm 16.09 Fair CLR 22.8 18.9 79% 75.84 1010.8
30 01:53 Calm 16.09 Fair CLR 22.8 18.9 79% 75.82 1010.8
30 00:53 W 7 16.09 Fair CLR 23.9 17.8 69% 25 75.84 1010.8
29 23:53 W 6 16.09 Fair CLR 23.3 18.3 74% 75.82 1010.7
29 22:53 W 9 16.09 Fair CLR 23.9 19.4 27.2 23.9 76% 24 75.79 1010.3
29 21:53 W 15 16.09 Fair CLR 24.4 16.7 62% 25 75.79 1010.4
29 20:53 W 11 16.09 Fair CLR 23.9 18.9 74% 25 75.79 1010.4
29 19:53 W 13 16.09 Fair CLR 24.4 19.4 74% 25 75.77 1009.8
29 18:53 NW 9 16.09 Fair CLR 26.7 16.7 54% 27 75.74 1009.6
29 17:53 W 24 16.09 Fair CLR 26.7 18.9 62% 28 75.74 1009.8
29 16:53 W 22 16.09 Fair CLR 27.2 20.6 31.7 27.2 67% 29 75.74 1009.7
29 15:53 W 20 16.09 Fair CLR 28.9 20 59% 31 75.77 1009.8
29 14:53 W 22 16.09 Fair CLR 30 18.3 49% 31 75.82 1010.6
29 13:53 W 20 16.09 Fair CLR 30 18.9 51% 31 75.87 1011.3
29 12:53 Vrbl 11 16.09 Fair CLR 31.7 20 50% 34 75.87 1011.4
29 11:53 W 15 16.09 Fair CLR 31.1 20 52% 33 75.92 1011.9
29 10:53 SE 7 16.09 Fair CLR 30.6 19.4 30.6 23.9 51% 32 75.95 1012.2
29 09:53 SW 9 16.09 Fair CLR 28.3 18.9 57% 30 75.95 1012.5
29 08:53 E 7 16.09 Fair CLR 26.7 20.6 69% 28 75.92 1012.1
29 07:53 Calm 16.09 Mostly Cloudy BKN011 25 21.1 79% 26 75.92 1012.0
29 06:53 E 7 14.48 Mostly Cloudy BKN009 24.4 21.7 85% 25 75.9 1011.6
29 05:53 Calm 16.09 Fair CLR 24.4 19.4 74% 25 75.87 1011.4
29 04:53 Calm 16.09 Fair CLR 24.4 18.9 26.1 24.4 72% 25 75.84 1011.1
29 03:53 Calm 16.09 Fair CLR 24.4 18.9 72% 25 75.84 1010.9
29 02:53 W 6 16.09 Fair CLR 24.4 18.9 72% 25 75.82 1010.7
29 01:53 Calm 16.09 Fair CLR 25.6 18.3 64% 27 75.84 1010.9
29 00:53 SW 6 16.09 Fair CLR 25.6 18.3 64% 27 75.84 1010.9
28 23:53 Calm 16.09 Fair CLR 26.1 18.3 62% 27 75.82 1010.6
28 22:53 Calm 16.09 Fair CLR 25.6 19.4 30.6 25 69% 27 75.79 1010.4
28 21:53 SW 7 16.09 Fair CLR 25.6 18.9 67% 27 75.79 1010.5
28 20:53 SW 7 16.09 Fair CLR 26.1 18.3 62% 27 75.77 1010.1
28 19:53 SW 9 16.09 Fair CLR 26.1 19.4 67% 27 75.74 1009.7
28 18:53 W 15 16.09 Fair CLR 27.8 20 63% 29 75.74 1009.5
28 17:53 W 13 16.09 Fair CLR 28.9 18.9 55% 30 75.74 1009.8
28 16:53 W 19 16.09 Fair CLR 30.6 19.4 32.2 30 51% 32 75.77 1009.8
28 15:53 W 19 16.09 Fair CLR 30.6 20.6 55% 33 75.77 1010.1
28 14:53 W 19 16.09 Fair CLR 31.7 20.6 52% 34 75.82 1010.6
28 13:53 NW 11 16.09 Fair CLR 31.1 21.1 55% 34 75.87 1011.3
28 12:53 W 19 16.09 Fair CLR 30.6 21.1 57% 33 75.9 1011.7
28 11:53 W 15 16.09 Fair CLR 31.7 20.6 52% 34 75.92 1012.0
28 10:53 W 13 16.09 Fair CLR 31.1 20.6 31.7 23.9 54% 34 75.92 1012.1
28 09:53 SE 7 16.09 Fair CLR 30 19.4 53% 32 75.92 1012.0
28 08:53 E 6 16.09 Fair CLR 27.8 18.9 58% 29 75.87 1011.3
28 07:53 Calm 16.09 Fair CLR 25.6 19.4 69% 27 75.9 1011.5
28 06:53 Calm 16.09 Fair CLR 24.4 20 77% 25 75.87 1011.2
28 05:53 Calm 16.09 Fair CLR 24.4 20 77% 25 75.82 1010.6
28 04:53 Calm 16.09 Fair CLR 24.4 20 25.6 24.4 77% 25 75.77 1010.1
28 03:53 Calm 16.09 Fair CLR 24.4 18.3 69% 25 75.77 1010.1
28 02:53 Calm 16.09 Fair CLR 25 20 74% 26 75.77 1010.0
28 01:53 SW 6 16.09 Fair CLR 25.6 20 71% 27 75.79 1010.2
28 00:53 Calm 16.09 Fair CLR 25 20 74% 26 75.77 1010.1
Date Time (pdt) Wind (kph) Vis. (km) Weather Sky Cond. Air Dwpt Max. Min. Relative Humidity Wind Chill (°C) Heat Index (°C) altimeter (cm) sea level (mb) 1 hr 3 hr 6 hr
6 hour
Temperature (ºC) Pressure Precipitation (cm)